Time;durP1;ratioP1;P1;durP2;ratioP2;P2;SDS_P1;SDS_P2;PMS_P1;PMS_P2;Temp;Humidity;BMP_temperature;BMP_pressure;BME280_temperature;BME280_humidity;BME280_pressure;Samples;Min_cycle;Max_cycle;Signal;HPM_P1;HPM_P2
2023/10/20 00:00:18;;;;;;;37.37;28.00;;;9.50;99.90;;;;;;5104325;27;20453;-78
2023/10/20 00:02:45;;;;;;;37.47;28.70;;;9.50;99.90;;;;;;5120675;27;20489;-78
2023/10/20 00:05:14;;;;;;;40.70;27.57;;;9.50;99.90;;;;;;5120752;27;20453;-79
2023/10/20 00:07:41;;;;;;;44.97;28.87;;;9.50;99.90;;;;;;5116794;27;20552;-79
2023/10/20 00:10:11;;;;;;;37.30;27.90;;;9.50;99.90;;;;;;5119348;27;20507;-78
2023/10/20 00:12:38;;;;;;;33.07;27.47;;;9.40;99.90;;;;;;5104688;27;21017;-79
2023/10/20 00:15:07;;;;;;;38.60;27.27;;;9.40;99.90;;;;;;5105615;27;20452;-79
2023/10/20 00:17:36;;;;;;;38.53;28.10;;;9.40;99.90;;;;;;5102626;27;20485;-78
2023/10/20 00:20:03;;;;;;;35.70;27.87;;;9.40;99.90;;;;;;5110457;27;20445;-80
2023/10/20 00:22:31;;;;;;;40.20;31.00;;;9.40;99.90;;;;;;5106183;27;20437;-80
2023/10/20 00:24:58;;;;;;;41.37;29.50;;;9.30;99.90;;;;;;5120383;27;20437;-77
2023/10/20 00:27:25;;;;;;;49.67;31.17;;;9.30;99.90;;;;;;5108925;27;20506;-77
2023/10/20 00:29:52;;;;;;;37.40;28.80;;;9.30;99.90;;;;;;5108601;27;20834;-77
2023/10/20 00:32:20;;;;;;;46.20;30.37;;;9.20;99.90;;;;;;5114176;27;20498;-77
2023/10/20 00:34:47;;;;;;;38.37;30.10;;;9.20;99.90;;;;;;5112547;27;20533;-77
2023/10/20 00:37:13;;;;;;;37.97;29.13;;;9.20;99.90;;;;;;5109734;27;20466;-77
2023/10/20 00:39:41;;;;;;;42.00;29.47;;;9.20;99.90;;;;;;5113688;27;20676;-77
2023/10/20 00:42:08;;;;;;;44.30;29.97;;;9.20;99.90;;;;;;5120735;27;20505;-77
2023/10/20 00:44:35;;;;;;;39.20;30.13;;;9.20;99.90;;;;;;5106403;27;20533;-77
2023/10/20 00:47:03;;;;;;;43.20;29.50;;;9.20;99.90;;;;;;5114108;27;20510;-77
2023/10/20 00:49:32;;;;;;;40.87;28.57;;;9.20;99.90;;;;;;5123067;27;20437;-77
2023/10/20 00:51:59;;;;;;;40.50;29.63;;;9.10;99.90;;;;;;5114605;27;20485;-77
2023/10/20 00:54:26;;;;;;;38.40;30.23;;;9.20;99.90;;;;;;5106962;27;20495;-77
2023/10/20 00:56:55;;;;;;;40.53;28.83;;;9.20;99.90;;;;;;5120934;27;20724;-77
2023/10/20 00:59:22;;;;;;;42.30;29.77;;;9.10;99.90;;;;;;5106193;27;20514;-77
2023/10/20 01:01:49;;;;;;;42.20;28.83;;;9.10;99.90;;;;;;5107977;27;20462;-77
2023/10/20 01:04:16;;;;;;;33.97;26.30;;;9.10;99.90;;;;;;5105599;27;20499;-79
2023/10/20 01:06:43;;;;;;;44.10;31.47;;;9.10;99.90;;;;;;5120911;27;20805;-78
2023/10/20 01:09:10;;;;;;;39.50;27.50;;;9.10;99.90;;;;;;5112792;27;20853;-79
2023/10/20 01:11:38;;;;;;;41.20;30.10;;;9.00;99.90;;;;;;5113172;27;21079;-78
2023/10/20 01:14:06;;;;;;;43.83;30.23;;;9.00;99.90;;;;;;5112427;27;20464;-78
2023/10/20 01:16:33;;;;;;;45.50;31.30;;;9.00;99.90;;;;;;5117600;27;20990;-78
2023/10/20 01:19:01;;;;;;;38.53;27.97;;;9.00;99.90;;;;;;5118231;27;20461;-78
2023/10/20 01:21:28;;;;;;;38.70;28.93;;;9.00;99.90;;;;;;5121868;27;20479;-79
2023/10/20 01:23:56;;;;;;;39.47;29.50;;;9.00;99.90;;;;;;5117383;27;20787;-79
2023/10/20 01:26:23;;;;;;;38.77;28.43;;;9.00;99.90;;;;;;5122087;27;20444;-79
2023/10/20 01:28:50;;;;;;;36.60;27.60;;;9.00;99.90;;;;;;5120734;27;20545;-79
2023/10/20 01:31:17;;;;;;;36.97;29.17;;;9.10;99.90;;;;;;5113324;27;20470;-78
2023/10/20 01:33:44;;;;;;;40.40;28.13;;;9.10;99.90;;;;;;5109349;27;20473;-79
2023/10/20 01:36:11;;;;;;;45.10;31.30;;;9.10;99.90;;;;;;5110944;27;20913;-78
2023/10/20 01:38:38;;;;;;;41.37;30.93;;;9.10;99.90;;;;;;5117290;27;20498;-78
2023/10/20 01:41:07;;;;;;;43.17;31.20;;;9.20;99.90;;;;;;5122488;27;20446;-78
2023/10/20 01:43:34;;;;;;;40.50;30.40;;;9.20;99.90;;;;;;5109642;27;20763;-78
2023/10/20 01:46:02;;;;;;;48.67;31.83;;;9.20;99.90;;;;;;5109026;27;20442;-78
2023/10/20 01:48:30;;;;;;;44.23;32.10;;;9.20;99.90;;;;;;5121850;27;20472;-78
2023/10/20 01:50:59;;;;;;;41.30;28.57;;;9.20;99.90;;;;;;5121613;27;20530;-78
2023/10/20 01:53:26;;;;;;;38.93;27.77;;;9.20;99.90;;;;;;5104407;27;20477;-78
2023/10/20 01:55:53;;;;;;;43.33;31.40;;;9.20;99.90;;;;;;5116355;27;20629;-78
2023/10/20 01:58:22;;;;;;;37.40;28.97;;;9.20;99.90;;;;;;5115245;27;20453;-78
2023/10/20 02:00:49;;;;;;;48.47;31.27;;;9.20;99.90;;;;;;5116360;27;21410;-78
2023/10/20 02:03:16;;;;;;;43.20;31.20;;;9.20;99.90;;;;;;5119303;27;20437;-78
2023/10/20 02:05:43;;;;;;;43.90;33.10;;;9.20;99.90;;;;;;5113336;27;20907;-78
2023/10/20 02:08:10;;;;;;;46.07;31.33;;;9.20;99.90;;;;;;5118682;27;20739;-78
2023/10/20 02:10:37;;;;;;;41.67;30.00;;;9.20;99.90;;;;;;5108690;27;20484;-78
2023/10/20 02:13:04;;;;;;;39.03;30.43;;;9.20;99.90;;;;;;5116837;27;20604;-78
2023/10/20 02:15:33;;;;;;;40.50;31.57;;;9.20;99.90;;;;;;5108835;27;20514;-78
2023/10/20 02:18:00;;;;;;;42.87;29.97;;;9.20;99.90;;;;;;5116931;27;20936;-78
2023/10/20 02:20:27;;;;;;;44.57;29.63;;;9.20;99.90;;;;;;5116800;27;20461;-79
2023/10/20 02:22:54;;;;;;;42.17;30.70;;;9.10;99.90;;;;;;5121064;27;20516;-80
2023/10/20 02:25:22;;;;;;;46.53;30.07;;;9.10;99.90;;;;;;5109916;27;20841;-79
2023/10/20 02:27:49;;;;;;;37.57;31.60;;;9.20;99.90;;;;;;5110603;27;20646;-79
2023/10/20 02:30:17;;;;;;;41.23;31.27;;;9.10;99.90;;;;;;5117366;27;20506;-79
2023/10/20 02:32:45;;;;;;;47.30;31.23;;;9.20;99.90;;;;;;5111548;27;20578;-79
2023/10/20 02:35:12;;;;;;;46.03;30.87;;;9.20;99.90;;;;;;5110006;27;20450;-79
2023/10/20 02:37:39;;;;;;;50.17;34.27;;;9.20;99.90;;;;;;5103872;27;20465;-79
2023/10/20 02:40:07;;;;;;;44.73;30.93;;;9.10;99.90;;;;;;5107469;27;20500;-79
2023/10/20 02:42:35;;;;;;;40.77;32.27;;;9.10;99.90;;;;;;5104929;27;20434;-79
2023/10/20 02:45:09;;;;;;;36.83;29.07;;;9.10;99.90;;;;;;5116095;27;20955;-78
2023/10/20 02:47:36;;;;;;;42.93;28.57;;;9.10;99.90;;;;;;5105566;27;20499;-79
2023/10/20 02:50:06;;;;;;;39.47;29.17;;;9.10;99.90;;;;;;5122499;27;21017;-79
2023/10/20 02:52:33;;;;;;;37.97;26.47;;;9.10;99.90;;;;;;5110556;27;20950;-79
2023/10/20 02:55:00;;;;;;;40.87;27.77;;;9.10;99.90;;;;;;5116661;27;20446;-79
2023/10/20 02:57:27;;;;;;;50.20;29.73;;;9.10;99.90;;;;;;5117146;27;20460;-79
2023/10/20 02:59:54;;;;;;;39.50;29.27;;;9.10;99.90;;;;;;5107808;27;20832;-79
2023/10/20 03:02:22;;;;;;;47.37;30.70;;;9.00;99.90;;;;;;5111498;27;20573;-79
2023/10/20 03:04:52;;;;;;;44.77;33.17;;;9.10;99.90;;;;;;5107574;27;20514;-79
2023/10/20 03:07:24;;;;;;;44.70;32.43;;;9.00;99.90;;;;;;5116493;27;20553;-79
2023/10/20 03:09:51;;;;;;;42.03;31.10;;;9.10;99.90;;;;;;5110029;27;20453;-79
2023/10/20 03:12:19;;;;;;;51.30;31.80;;;9.20;99.90;;;;;;5110982;27;20516;-79
2023/10/20 03:14:47;;;;;;;41.50;29.10;;;9.10;99.90;;;;;;5120418;27;20444;-79
2023/10/20 03:17:16;;;;;;;52.73;32.23;;;9.10;99.90;;;;;;5114994;27;20442;-79
2023/10/20 03:19:45;;;;;;;52.10;32.43;;;9.10;99.90;;;;;;5118762;27;20901;-79
2023/10/20 03:22:13;;;;;;;44.63;32.37;;;9.10;99.90;;;;;;5111348;27;20538;-79
2023/10/20 03:24:42;;;;;;;49.43;32.10;;;9.20;99.90;;;;;;5111618;27;20578;-79
2023/10/20 03:27:09;;;;;;;46.03;33.10;;;9.20;99.90;;;;;;5122830;27;20451;-79
2023/10/20 03:29:36;;;;;;;49.20;32.23;;;9.30;99.90;;;;;;5117064;27;20541;-79
2023/10/20 03:32:03;;;;;;;45.97;30.60;;;9.30;99.90;;;;;;5111670;27;20450;-79
2023/10/20 03:34:32;;;;;;;49.80;33.63;;;9.30;99.90;;;;;;5106215;27;20481;-79
2023/10/20 03:37:01;;;;;;;45.57;33.53;;;9.30;99.90;;;;;;5122236;27;20442;-80
2023/10/20 03:39:28;;;;;;;48.87;30.80;;;9.30;99.90;;;;;;5101362;27;20529;-79
2023/10/20 03:41:56;;;;;;;45.93;31.57;;;9.40;99.90;;;;;;5116889;27;20517;-79
2023/10/20 03:44:23;;;;;;;45.03;31.60;;;9.40;99.90;;;;;;5102458;27;21024;-79
2023/10/20 03:46:56;;;;;;;43.73;31.43;;;9.30;99.90;;;;;;5112190;27;20901;-78
2023/10/20 03:49:23;;;;;;;51.87;33.53;;;9.40;99.90;;;;;;5106826;27;20442;-79
2023/10/20 03:51:50;;;;;;;52.20;32.60;;;9.40;99.90;;;;;;5108036;27;20799;-79
2023/10/20 03:54:17;;;;;;;52.27;34.03;;;9.40;99.90;;;;;;5124713;27;20556;-79
2023/10/20 03:56:45;;;;;;;44.93;31.77;;;9.40;99.90;;;;;;5107201;27;20838;-78
2023/10/20 03:59:14;;;;;;;50.37;33.70;;;9.40;99.90;;;;;;5115362;27;20489;-79
2023/10/20 04:01:41;;;;;;;57.67;35.40;;;9.50;99.90;;;;;;5108436;27;20462;-79
2023/10/20 04:04:09;;;;;;;54.23;32.70;;;9.50;99.90;;;;;;5112037;27;21201;-78
2023/10/20 04:06:37;;;;;;;51.07;33.70;;;9.50;99.90;;;;;;5113042;27;20453;-78
2023/10/20 04:09:08;;;;;;;48.70;31.97;;;9.50;99.90;;;;;;5115295;27;20464;-79
2023/10/20 04:11:35;;;;;;;51.30;34.37;;;9.40;99.90;;;;;;5122888;27;20508;-79
2023/10/20 04:14:05;;;;;;;52.90;34.37;;;9.50;99.90;;;;;;5126050;27;20914;-79
2023/10/20 04:16:39;;;;;;;53.63;35.17;;;9.40;99.90;;;;;;5118981;27;20937;-78
2023/10/20 04:19:09;;;;;;;54.60;34.97;;;9.40;99.90;;;;;;5110445;27;20465;-78
2023/10/20 04:21:38;;;;;;;53.37;35.10;;;9.40;99.90;;;;;;5109949;27;20525;-79
2023/10/20 04:24:07;;;;;;;54.73;33.00;;;9.40;99.90;;;;;;5114395;27;20461;-79
2023/10/20 04:26:35;;;;;;;54.13;36.23;;;9.50;99.90;;;;;;5114695;27;20794;-79
2023/10/20 04:29:23;;;;;;;56.67;34.43;;;9.40;99.90;;;;;;5118221;27;20579;-79
2023/10/20 04:43:35;;;;;;;45.43;29.40;;;9.40;99.90;;;;;;5108300;27;20942;-80
2023/10/20 04:49:35;;;;;;;50.67;32.47;;;9.40;99.90;;;;;;5081635;28;20525;-78
2023/10/20 04:52:17;;;;;;;44.97;31.83;;;9.40;99.90;;;;;;5069588;28;21049;-79
2023/10/20 04:54:50;;;;;;;44.30;29.50;;;9.40;99.90;;;;;;5110280;27;20993;-79
2023/10/20 04:57:37;;;;;;;44.20;29.60;;;9.40;99.90;;;;;;5107427;27;20452;-79
2023/10/20 05:02:58;;;;;;;51.37;32.90;;;9.40;99.90;;;;;;5106165;27;20941;-78
2023/10/20 05:05:33;;;;;;;46.27;30.80;;;9.30;99.90;;;;;;5120105;27;20900;-78
2023/10/20 05:08:05;;;;;;;45.17;27.80;;;9.30;99.90;;;;;;5122096;27;20952;-79
2023/10/20 05:10:32;;;;;;;46.63;31.33;;;9.30;99.90;;;;;;5105838;27;20488;-78
2023/10/20 05:12:59;;;;;;;45.67;30.20;;;9.30;99.90;;;;;;5111013;27;20665;-78
2023/10/20 05:15:31;;;;;;;43.50;31.30;;;9.30;99.90;;;;;;5107758;27;20449;-79
2023/10/20 05:17:58;;;;;;;44.10;30.60;;;9.40;99.90;;;;;;5113575;27;20817;-79
2023/10/20 05:20:26;;;;;;;42.43;28.13;;;9.40;99.90;;;;;;5106916;27;20752;-80
2023/10/20 05:22:53;;;;;;;47.60;29.60;;;9.40;99.90;;;;;;5117578;27;20453;-79
2023/10/20 05:25:20;;;;;;;44.77;29.20;;;9.40;99.90;;;;;;5108374;27;20450;-79
2023/10/20 05:27:47;;;;;;;46.97;29.13;;;9.50;99.90;;;;;;5114862;27;20454;-79
2023/10/20 05:30:14;;;;;;;54.70;29.13;;;9.50;99.90;;;;;;5107309;27;20450;-79
2023/10/20 05:32:41;;;;;;;46.47;31.23;;;9.40;99.90;;;;;;5111570;27;20561;-79
2023/10/20 05:35:09;;;;;;;51.87;30.00;;;9.40;99.90;;;;;;5124402;27;20929;-79
2023/10/20 05:37:37;;;;;;;47.83;32.83;;;9.40;99.90;;;;;;5112356;27;20445;-79
2023/10/20 05:40:05;;;;;;;49.30;29.20;;;9.50;99.90;;;;;;5123457;27;20720;-79
2023/10/20 05:42:32;;;;;;;44.47;33.20;;;9.50;99.90;;;;;;5107880;27;20905;-79
2023/10/20 05:45:03;;;;;;;47.30;29.50;;;9.50;99.90;;;;;;5113508;27;20602;-79
2023/10/20 05:47:30;;;;;;;53.50;30.17;;;9.60;99.90;;;;;;5115733;27;20465;-79
2023/10/20 05:49:57;;;;;;;43.83;30.40;;;9.50;99.90;;;;;;5109711;27;20438;-79
2023/10/20 05:52:25;;;;;;;45.03;27.50;;;9.60;99.90;;;;;;5117469;27;20544;-79
2023/10/20 05:54:54;;;;;;;40.83;31.17;;;9.50;99.90;;;;;;5113497;27;20506;-79
2023/10/20 05:57:22;;;;;;;56.93;31.77;;;9.60;99.90;;;;;;5111496;27;20470;-80
2023/10/20 05:59:49;;;;;;;44.53;26.93;;;9.60;99.90;;;;;;5103883;27;20457;-80
2023/10/20 06:02:16;;;;;;;48.63;29.43;;;9.60;99.90;;;;;;5112291;27;20472;-79
2023/10/20 06:04:43;;;;;;;45.63;27.00;;;9.70;99.90;;;;;;5120914;27;20429;-79
2023/10/20 06:07:10;;;;;;;46.50;29.37;;;9.70;99.90;;;;;;5113757;27;20524;-80
2023/10/20 06:09:37;;;;;;;39.73;27.37;;;9.70;99.90;;;;;;5110224;27;20456;-80
2023/10/20 06:12:07;;;;;;;43.97;28.57;;;9.80;99.90;;;;;;5117234;27;21085;-80
2023/10/20 06:14:36;;;;;;;39.23;25.63;;;9.80;99.90;;;;;;5125561;27;20703;-80
2023/10/20 06:17:03;;;;;;;42.03;25.87;;;9.80;99.90;;;;;;5119033;27;20519;-79
2023/10/20 06:19:31;;;;;;;44.47;27.70;;;9.90;99.90;;;;;;5108521;27;20441;-79
2023/10/20 06:22:00;;;;;;;40.20;26.93;;;9.90;99.90;;;;;;5112542;27;20545;-80
2023/10/20 06:24:27;;;;;;;43.83;27.10;;;10.00;99.90;;;;;;5128071;27;20449;-80
2023/10/20 06:26:55;;;;;;;37.93;24.70;;;10.00;99.90;;;;;;5115248;27;20510;-80
2023/10/20 06:29:27;;;;;;;41.23;28.00;;;10.00;99.90;;;;;;5111158;27;20473;-79
2023/10/20 06:32:06;;;;;;;39.07;25.50;;;10.10;99.90;;;;;;5106853;27;20481;-79
2023/10/20 06:34:34;;;;;;;42.77;24.83;;;10.10;99.90;;;;;;5104464;27;20538;-82
2023/10/20 06:37:08;;;;;;;38.77;27.80;;;10.20;99.90;;;;;;5111807;27;20442;-79
2023/10/20 06:39:37;;;;;;;34.03;23.63;;;10.20;99.90;;;;;;5111278;27;20453;-80
2023/10/20 06:42:04;;;;;;;34.30;22.27;;;10.20;99.90;;;;;;5112418;27;20457;-79
2023/10/20 06:44:34;;;;;;;34.60;25.20;;;10.30;99.90;;;;;;5103832;27;20430;-79
2023/10/20 06:47:01;;;;;;;32.17;21.90;;;10.30;99.90;;;;;;5107630;27;20553;-79
2023/10/20 06:49:28;;;;;;;27.90;21.83;;;10.40;99.90;;;;;;5103891;27;20511;-79
2023/10/20 06:51:55;;;;;;;34.03;21.73;;;10.50;99.90;;;;;;5110207;27;20906;-79
2023/10/20 06:54:22;;;;;;;32.67;21.73;;;10.50;99.90;;;;;;5119622;27;20533;-80
2023/10/20 06:56:49;;;;;;;31.97;22.63;;;10.60;99.90;;;;;;5104685;27;20907;-80
2023/10/20 06:59:15;;;;;;;24.33;19.40;;;10.60;99.90;;;;;;5117507;27;20444;-79
2023/10/20 07:01:44;;;;;;;25.57;19.20;;;10.60;99.90;;;;;;5103761;27;21007;-79
2023/10/20 07:04:11;;;;;;;30.53;19.60;;;10.70;99.90;;;;;;5108833;27;20438;-79
2023/10/20 07:06:40;;;;;;;29.53;20.07;;;10.80;99.90;;;;;;5113204;27;20498;-78
2023/10/20 07:09:11;;;;;;;28.93;17.37;;;10.80;99.90;;;;;;5114185;27;20480;-78
2023/10/20 07:11:39;;;;;;;35.90;21.23;;;10.80;99.90;;;;;;5123970;27;20490;-78
2023/10/20 07:14:06;;;;;;;30.70;19.53;;;10.90;99.90;;;;;;5108038;27;20960;-78
2023/10/20 07:16:33;;;;;;;28.97;19.10;;;11.00;99.90;;;;;;5118202;27;20553;-79
2023/10/20 07:19:02;;;;;;;25.57;16.90;;;11.10;99.90;;;;;;5108327;27;20462;-79
2023/10/20 07:21:29;;;;;;;26.67;18.03;;;11.20;99.90;;;;;;5106571;27;20575;-79
2023/10/20 07:23:56;;;;;;;22.40;17.13;;;11.20;99.90;;;;;;5108957;27;20455;-79
2023/10/20 07:26:23;;;;;;;25.90;15.50;;;11.30;99.90;;;;;;5118031;27;20516;-79
2023/10/20 07:28:50;;;;;;;21.53;15.47;;;11.40;99.90;;;;;;5111099;27;20442;-78
2023/10/20 07:31:21;;;;;;;22.40;16.40;;;11.50;99.90;;;;;;5114411;27;20983;-80
2023/10/20 07:33:49;;;;;;;18.53;15.53;;;11.60;99.90;;;;;;5106915;27;20474;-79
2023/10/20 07:36:17;;;;;;;20.13;13.70;;;11.70;99.90;;;;;;5107925;27;20562;-79
2023/10/20 07:38:44;;;;;;;15.50;13.50;;;11.70;99.90;;;;;;5112549;27;20446;-79
2023/10/20 07:41:13;;;;;;;20.70;15.83;;;11.80;99.90;;;;;;5104835;27;20454;-80
2023/10/20 07:43:41;;;;;;;16.37;12.13;;;11.90;99.90;;;;;;5110959;27;20538;-79
2023/10/20 07:46:14;;;;;;;15.17;12.50;;;12.10;99.90;;;;;;5104572;27;20467;-79
2023/10/20 07:48:41;;;;;;;17.60;13.40;;;12.00;99.90;;;;;;5114765;27;20893;-79
2023/10/20 07:51:08;;;;;;;16.33;10.50;;;12.20;99.90;;;;;;5109359;27;20511;-79
2023/10/20 07:53:37;;;;;;;14.10;10.97;;;12.30;99.90;;;;;;5109901;27;20565;-80
2023/10/20 07:56:04;;;;;;;13.80;11.43;;;12.30;99.90;;;;;;5114194;27;20458;-79
2023/10/20 07:58:33;;;;;;;13.87;11.30;;;12.50;99.90;;;;;;5125006;27;20464;-79
2023/10/20 08:01:00;;;;;;;15.87;12.37;;;12.60;99.90;;;;;;5105344;27;20527;-79
2023/10/20 08:03:27;;;;;;;15.63;10.07;;;12.70;99.90;;;;;;5114663;27;20464;-79
2023/10/20 08:05:54;;;;;;;15.23;11.17;;;12.80;99.90;;;;;;5111908;27;20444;-79
2023/10/20 08:08:21;;;;;;;12.30;10.00;;;12.80;99.90;;;;;;5118218;27;20813;-79
2023/10/20 08:10:49;;;;;;;14.97;11.47;;;12.90;99.90;;;;;;5107359;27;21058;-79
2023/10/20 08:13:16;;;;;;;12.60;8.97;;;13.00;99.90;;;;;;5123827;27;20440;-79
2023/10/20 08:15:44;;;;;;;13.00;9.70;;;13.10;99.90;;;;;;5104560;27;20773;-79
2023/10/20 08:18:11;;;;;;;13.37;9.87;;;13.10;99.90;;;;;;5108960;27;20908;-79
2023/10/20 08:20:38;;;;;;;12.60;9.80;;;13.10;99.90;;;;;;5107133;27;20449;-80
2023/10/20 08:23:05;;;;;;;10.67;9.50;;;13.10;99.90;;;;;;5110916;27;20473;-79
2023/10/20 08:25:32;;;;;;;11.47;10.07;;;13.10;99.90;;;;;;5103574;27;20519;-79
2023/10/20 08:28:00;;;;;;;9.77;8.07;;;13.20;99.90;;;;;;5108275;27;20507;-80
2023/10/20 08:30:27;;;;;;;11.40;9.37;;;13.30;99.90;;;;;;5108799;27;20459;-79
2023/10/20 08:32:54;;;;;;;11.33;10.10;;;13.30;99.90;;;;;;5107612;27;20871;-79
2023/10/20 08:35:22;;;;;;;11.73;10.53;;;13.40;99.90;;;;;;5114879;27;21043;-79
2023/10/20 08:37:49;;;;;;;10.40;8.57;;;13.50;99.90;;;;;;5118660;27;20460;-79
2023/10/20 08:40:16;;;;;;;10.77;9.00;;;13.60;99.90;;;;;;5104372;27;20443;-80
2023/10/20 08:42:43;;;;;;;10.60;8.77;;;13.80;99.90;;;;;;5106059;27;20981;-80
2023/10/20 08:45:14;;;;;;;11.93;8.03;;;14.00;99.90;;;;;;5114744;27;20517;-79
2023/10/20 08:47:42;;;;;;;11.37;9.13;;;14.10;99.90;;;;;;5109422;27;20972;-80
2023/10/20 08:50:10;;;;;;;9.60;8.60;;;14.20;99.90;;;;;;5106511;27;20448;-80
2023/10/20 08:52:38;;;;;;;8.27;6.70;;;14.40;99.90;;;;;;5115155;27;20458;-80
2023/10/20 08:55:07;;;;;;;8.10;7.30;;;14.50;99.90;;;;;;5120786;27;20486;-81
2023/10/20 08:57:34;;;;;;;64.80;40.17;;;14.70;99.90;;;;;;5123123;27;20997;-80
2023/10/20 09:00:01;;;;;;;99.33;60.63;;;15.00;99.90;;;;;;5110133;27;20465;-81
2023/10/20 09:02:38;;;;;;;44.23;33.53;;;15.20;99.90;;;;;;5107319;27;20452;-80
2023/10/20 09:05:06;;;;;;;12.00;9.70;;;15.30;99.90;;;;;;5110030;27;20539;-81
2023/10/20 09:07:33;;;;;;;10.53;8.20;;;15.50;99.90;;;;;;5112507;27;20556;-80
2023/10/20 09:10:01;;;;;;;8.87;6.87;;;15.60;99.90;;;;;;5110011;27;20456;-80
2023/10/20 09:12:30;;;;;;;8.43;7.63;;;16.00;99.90;;;;;;5112635;27;20469;-80
2023/10/20 09:14:58;;;;;;;15.10;11.63;;;16.00;99.90;;;;;;5106739;27;21104;-80
2023/10/20 09:17:25;;;;;;;21.37;15.70;;;16.20;99.90;;;;;;5119335;27;20518;-80
2023/10/20 09:20:05;;;;;;;19.63;13.93;;;16.30;99.90;;;;;;5112070;27;20937;-80
2023/10/20 09:22:33;;;;;;;28.27;21.70;;;16.40;99.90;;;;;;5113572;27;20451;-80
2023/10/20 09:25:00;;;;;;;13.70;11.67;;;16.60;99.90;;;;;;5113449;27;20461;-80
2023/10/20 09:27:27;;;;;;;14.90;13.30;;;16.70;99.90;;;;;;5115188;27;20885;-79
2023/10/20 09:29:56;;;;;;;10.70;9.63;;;16.80;99.90;;;;;;5111816;27;20458;-79
2023/10/20 09:32:23;;;;;;;5.00;3.50;;;17.00;99.90;;;;;;5113158;27;20460;-80
2023/10/20 09:34:49;;;;;;;4.80;2.63;;;17.20;99.90;;;;;;5121219;27;20592;-80
2023/10/20 09:37:24;;;;;;;4.90;4.40;;;17.30;99.90;;;;;;5106862;27;20461;-79
2023/10/20 09:39:57;;;;;;;2.47;2.27;;;17.50;99.90;;;;;;5107153;27;21033;-80
2023/10/20 09:42:26;;;;;;;2.80;2.47;;;17.60;99.90;;;;;;5106830;27;20462;-80
2023/10/20 09:45:06;;;;;;;2.67;2.47;;;17.70;99.90;;;;;;5108970;27;20433;-79
2023/10/20 09:47:36;;;;;;;3.80;2.90;;;17.80;99.90;;;;;;5112126;27;20768;-80
2023/10/20 09:50:05;;;;;;;2.63;2.30;;;18.10;99.90;;;;;;5106844;27;20429;-79
2023/10/20 09:52:35;;;;;;;6.10;2.33;;;18.20;99.90;;;;;;5109233;27;20461;-80
2023/10/20 09:55:02;;;;;;;3.67;2.73;;;18.30;99.50;;;;;;5116082;27;20485;-80
2023/10/20 09:57:29;;;;;;;2.20;2.00;;;18.50;99.40;;;;;;5118695;27;20495;-79
2023/10/20 09:59:56;;;;;;;5.27;2.00;;;18.60;99.90;;;;;;5107372;27;20493;-79
2023/10/20 10:02:30;;;;;;;2.70;1.77;;;18.70;99.30;;;;;;5113066;27;20557;-79
2023/10/20 10:04:57;;;;;;;1.97;1.33;;;18.80;99.90;;;;;;5109238;27;20763;-79
2023/10/20 10:07:29;;;;;;;1.70;1.57;;;18.90;97.30;;;;;;5114394;27;20552;-80
2023/10/20 10:09:58;;;;;;;1.33;0.83;;;18.90;96.70;;;;;;5112345;27;20855;-80
2023/10/20 10:12:27;;;;;;;1.30;0.80;;;18.90;97.70;;;;;;5114551;27;20755;-80
2023/10/20 10:14:59;;;;;;;2.10;1.27;;;19.00;95.20;;;;;;5118889;27;20976;-79
2023/10/20 10:17:27;;;;;;;2.03;1.40;;;19.10;93.90;;;;;;5119591;27;20943;-79
2023/10/20 10:19:56;;;;;;;1.77;1.07;;;19.10;94.70;;;;;;5107074;27;20525;-80
2023/10/20 10:22:30;;;;;;;3.27;1.50;;;19.20;94.20;;;;;;5107391;27;21144;-80
2023/10/20 10:25:01;;;;;;;1.10;0.87;;;19.20;93.10;;;;;;5104568;27;21275;-80
2023/10/20 10:27:29;;;;;;;1.53;0.80;;;19.30;91.40;;;;;;5114429;27;20809;-80
2023/10/20 10:30:00;;;;;;;0.90;0.70;;;19.40;91.90;;;;;;5113638;27;20992;-80
2023/10/20 10:32:31;;;;;;;1.20;0.60;;;19.40;91.50;;;;;;5105072;27;20456;-80
2023/10/20 10:34:58;;;;;;;1.60;1.10;;;19.40;92.50;;;;;;5112550;27;20488;-80
2023/10/20 10:37:31;;;;;;;0.90;0.70;;;19.40;92.00;;;;;;5115758;27;20434;-80
2023/10/20 10:40:08;;;;;;;1.37;0.80;;;19.30;93.90;;;;;;5104163;27;20804;-81
2023/10/20 10:42:40;;;;;;;0.83;0.80;;;19.20;92.80;;;;;;5106223;27;20445;-80
2023/10/20 10:45:23;;;;;;;4.33;1.50;;;19.20;92.80;;;;;;5111139;27;20456;-80
2023/10/20 10:47:51;;;;;;;1.40;0.80;;;19.30;91.70;;;;;;5109860;27;20532;-79
2023/10/20 10:50:21;;;;;;;1.43;0.90;;;19.30;90.30;;;;;;5114342;27;20506;-80
2023/10/20 10:52:48;;;;;;;7.70;0.60;;;19.40;90.00;;;;;;5104633;27;20993;-80
2023/10/20 10:55:16;;;;;;;0.97;0.60;;;19.30;91.30;;;;;;5118470;27;20516;-81
2023/10/20 10:57:44;;;;;;;0.73;0.40;;;19.30;90.60;;;;;;5126525;27;20438;-80
2023/10/20 11:00:15;;;;;;;1.20;0.40;;;19.40;87.80;;;;;;5125928;27;20831;-80
2023/10/20 11:02:42;;;;;;;0.50;0.40;;;19.40;86.90;;;;;;5114900;27;20469;-80
2023/10/20 11:05:09;;;;;;;1.50;0.50;;;19.40;85.80;;;;;;5109468;27;20502;-80
2023/10/20 11:07:38;;;;;;;0.80;0.43;;;19.30;86.50;;;;;;5123560;27;20461;-79
2023/10/20 11:10:06;;;;;;;0.60;0.40;;;19.20;88.50;;;;;;5134132;27;20497;-80
2023/10/20 11:12:35;;;;;;;3.40;0.47;;;19.20;86.90;;;;;;5126939;27;20444;-80
2023/10/20 11:15:04;;;;;;;0.57;0.43;;;19.20;87.50;;;;;;5126725;27;20483;-80
2023/10/20 11:17:31;;;;;;;1.40;0.43;;;19.20;85.40;;;;;;5122548;27;20525;-80
2023/10/20 11:19:58;;;;;;;1.50;0.43;;;19.30;83.40;;;;;;5121038;27;20507;-80
2023/10/20 11:22:25;;;;;;;5.13;0.40;;;19.40;84.40;;;;;;5126914;27;20432;-80
2023/10/20 11:24:53;;;;;;;1.13;0.40;;;19.40;80.90;;;;;;5116846;27;20515;-80
2023/10/20 11:27:21;;;;;;;2.60;0.60;;;19.50;78.60;;;;;;5121750;27;20445;-80
2023/10/20 11:29:49;;;;;;;1.20;0.30;;;19.50;82.10;;;;;;5124086;27;20936;-80
2023/10/20 11:32:18;;;;;;;0.50;0.30;;;19.60;77.20;;;;;;5120400;27;20529;-80
2023/10/20 11:34:45;;;;;;;1.63;0.50;;;19.60;78.60;;;;;;5122645;27;20583;-80
2023/10/20 11:37:14;;;;;;;6.93;0.50;;;19.70;79.40;;;;;;5127553;27;20531;-80
2023/10/20 11:39:41;;;;;;;0.53;0.47;;;19.70;78.30;;;;;;5114265;27;20557;-80
2023/10/20 11:42:07;;;;;;;4.20;0.40;;;19.80;78.20;;;;;;5113393;27;20442;-80
2023/10/20 11:44:34;;;;;;;0.77;0.63;;;19.90;75.50;;;;;;5102849;27;20546;-80
2023/10/20 11:47:03;;;;;;;3.70;0.60;;;19.90;77.20;;;;;;5113616;27;20465;-80
2023/10/20 11:49:30;;;;;;;0.90;0.50;;;19.90;76.60;;;;;;5120541;27;20457;-80
2023/10/20 11:51:57;;;;;;;1.83;0.40;;;20.10;73.10;;;;;;5113546;27;20557;-79
2023/10/20 11:54:23;;;;;;;0.70;0.53;;;20.20;71.50;;;;;;5128395;27;20433;-79
2023/10/20 11:56:51;;;;;;;1.10;0.40;;;20.50;67.60;;;;;;5119340;27;20554;-81
2023/10/20 11:59:18;;;;;;;1.60;0.43;;;20.90;63.50;;;;;;5105038;27;20446;-81
2023/10/20 12:01:45;;;;;;;0.83;0.50;;;21.20;62.50;;;;;;5110984;27;20449;-81
2023/10/20 12:04:13;;;;;;;4.37;0.63;;;21.50;60.20;;;;;;5131613;27;20916;-81
2023/10/20 12:06:40;;;;;;;1.47;0.40;;;21.90;61.10;;;;;;5117085;27;20512;-80
2023/10/20 12:09:10;;;;;;;1.73;0.70;;;22.30;55.50;;;;;;5108201;27;20522;-79
2023/10/20 12:11:38;;;;;;;2.40;1.70;;;22.60;55.70;;;;;;5109457;27;20578;-78
2023/10/20 12:14:05;;;;;;;1.23;0.67;;;22.90;57.00;;;;;;5114225;27;20508;-79
2023/10/20 12:16:32;;;;;;;0.80;0.60;;;23.20;57.20;;;;;;5111154;27;20481;-79
2023/10/20 12:19:01;;;;;;;3.13;0.50;;;23.40;52.70;;;;;;5113330;27;20461;-79
2023/10/20 12:21:30;;;;;;;3.33;0.90;;;23.60;51.00;;;;;;5129764;27;20445;-79
2023/10/20 12:23:57;;;;;;;1.03;0.70;;;23.80;49.30;;;;;;5133815;27;20523;-79
2023/10/20 12:26:24;;;;;;;1.83;0.60;;;23.90;50.50;;;;;;5117248;27;20457;-79
2023/10/20 12:28:51;;;;;;;0.90;0.53;;;24.00;48.80;;;;;;5108975;27;20538;-82
2023/10/20 12:31:18;;;;;;;4.40;0.60;;;24.20;48.60;;;;;;5109507;27;20484;-81
2023/10/20 12:33:45;;;;;;;0.70;0.70;;;24.20;48.90;;;;;;5116950;27;21108;-81
2023/10/20 12:36:13;;;;;;;1.20;0.50;;;24.20;45.00;;;;;;5126881;27;20571;-81
2023/10/20 12:38:43;;;;;;;1.30;0.50;;;24.30;44.80;;;;;;5111532;27;20484;-78
2023/10/20 12:41:10;;;;;;;4.03;0.97;;;24.40;44.10;;;;;;5113579;27;20462;-78
2023/10/20 12:43:37;;;;;;;0.63;0.50;;;24.40;44.00;;;;;;5128664;27;20472;-82
2023/10/20 12:46:05;;;;;;;6.20;0.93;;;24.40;42.60;;;;;;5128825;27;20445;-79
2023/10/20 12:48:33;;;;;;;3.00;0.67;;;24.40;41.50;;;;;;5124710;27;20552;-79
2023/10/20 12:51:07;;;;;;;2.53;1.07;;;24.40;42.00;;;;;;5128306;27;20892;-79
2023/10/20 12:53:34;;;;;;;9.70;1.30;;;24.40;43.10;;;;;;5113143;27;20480;-79
2023/10/20 12:56:02;;;;;;;3.00;0.50;;;24.40;42.30;;;;;;5115919;27;20525;-79
2023/10/20 12:58:29;;;;;;;2.20;0.97;;;24.40;42.00;;;;;;5115303;27;20881;-79
2023/10/20 13:00:57;;;;;;;7.33;1.63;;;24.70;42.40;;;;;;5104962;27;20581;-80